Latest Weather Observations for Albury

IDV60801

Issued at 11:12 pm EST Monday 6 April 2020 (issued every 10 minutes, with the page automatically refreshed every 10 minutes)

About weather observations | Map of weather stations | Latest weather observations for VIC | Other Formats
Station Details ID: 072160 Name: ALBURY AIRPORT AWS Lat: -36.07 Lon: 146.95 Height: 163.5 m
Data from the previous 72 hours. | See also: Recent months at Albury
Date/Time
EST
Temp
°C
App
Temp
°C
Dew
Point
°C
Rel
Hum
%
Delta-T
°C
Wind Press
QNH
hPa
Press
MSL
hPa
Rain since
9am
mm
Dir  Spd
km/h
Gust
km/h
Spd
kts
Gust
kts
06/11:00pm 10.0 9.6 8.3 89 0.8 CALM 0 0 0 0 1021.9 1021.8 0.2
06/10:30pm 10.0 9.6 8.3 89 0.8 CALM 0 0 0 0 1021.9 1021.8 0.2
06/10:00pm 10.4 10.0 8.2 86 1.1 CALM 0 0 0 0 1021.9 1021.8 0.2
06/09:30pm 10.7 10.2 7.9 83 1.4 CALM 0 0 0 0 1021.5 1021.4 0.2
06/09:00pm 11.5 11.0 7.8 78 1.8 CALM 0 0 0 0 1021.3 1021.2 0.2
06/08:30pm 12.7 12.2 7.8 72 2.4 CALM 0 4 0 2 1021.0 1020.8 0.2
06/08:00pm 12.6 12.1 7.9 73 2.3 CALM 0 0 0 0 1020.9 1020.7 0.2
06/07:30pm 12.9 10.8 6.7 66 3.0 WSW 7 11 4 6 1020.7 1020.5 0.2
06/07:00pm 13.5 11.4 6.8 64 3.3 W 7 11 4 6 1020.6 1020.4 0.2
06/06:30pm 13.9 11.5 7.0 63 3.4 WNW 9 13 5 7 1020.2 1020.0 0.2
06/06:00pm 15.0 12.2 6.8 58 4.0 WNW 11 13 6 7 1020.0 1019.8 0.2
06/05:30pm 16.7 13.9 7.1 53 4.8 WNW 11 15 6 8 1019.7 1019.5 0.2
06/05:00pm 17.6 14.8 7.1 50 5.3 WNW 11 15 6 8 1019.5 1019.3 0.2
06/04:30pm 17.7 15.0 7.2 50 5.3 WNW 11 15 6 8 1019.3 1019.1 0.2
06/04:00pm 17.4 15.4 7.2 51 5.1 S 7 15 4 8 1019.3 1019.1 0.2
06/03:30pm 17.6 15.5 6.8 49 5.4 SSW 7 13 4 7 1019.3 1019.1 0.2
06/03:00pm 17.5 15.5 7.0 50 5.3 W 7 15 4 8 1019.3 1019.1 0.2
06/02:30pm 17.6 14.8 7.1 50 5.3 WNW 11 19 6 10 1019.2 1019.0 0.2
06/02:00pm 18.4 15.1 6.3 45 6.0 W 13 20 7 11 1019.2 1019.0 0.2
06/01:30pm 17.7 13.6 6.3 47 5.7 NW 17 22 9 12 1019.2 1019.0 0.2
06/01:00pm 17.3 13.6 6.5 49 5.4 W 15 24 8 13 1019.5 1019.3 0.2
06/12:30pm 17.1 12.9 7.5 53 4.9 WNW 19 28 10 15 1019.7 1019.5 0.2
06/12:00pm 17.0 13.8 8.4 57 4.4 W 15 20 8 11 1019.9 1019.7 0.0
06/11:30am 16.6 14.1 6.7 52 4.9 WNW 9 19 5 10 1020.1 1019.9 0.0
06/11:00am 16.3 12.6 7.8 57 4.3 W 17 24 9 13 1020.3 1020.1 0.0
06/10:30am 16.1 12.2 8.8 62 3.8 WSW 19 28 10 15 1020.2 1020.0 0.0
06/10:00am 15.4 12.2 8.4 63 3.6 W 15 24 8 13 1020.1 1019.9 0.0
06/09:30am 14.9 11.5 9.3 69 2.9 WSW 17 24 9 13 1020.3 1020.1 0.0
06/09:00am 14.5 11.3 9.9 74 2.4 WSW 17 26 9 14 1020.1 1019.9 1.2
06/08:30am 14.0 10.9 10.4 79 1.9 W 17 22 9 12 1020.0 1019.8 1.2
06/08:00am 13.0 11.2 10.9 87 1.1 W 11 15 6 8 1019.6 1019.4 1.2
06/07:30am 12.9 11.7 11.6 92 0.7 W 9 13 5 7 1019.2 1019.0 1.2
06/07:00am 12.6 10.5 11.3 92 0.7 WNW 13 17 7 9 1018.7 1018.5 1.2
06/06:30am 12.5 10.5 11.4 93 0.6 W 13 17 7 9 1018.3 1018.1 1.2
06/06:00am 12.6 10.3 11.8 95 0.4 W 15 19 8 10 1017.9 1017.7 1.2
06/05:30am 12.4 10.9 11.9 97 0.3 W 11 13 6 7 1017.5 1017.3 1.2
06/05:00am 12.4 11.7 11.9 97 0.3 WNW 7 13 4 7 1017.2 1017.0 1.2
06/04:30am 12.3 11.2 12.0 98 0.2 W 9 13 5 7 1016.8 1016.6 1.2
06/04:18am 12.4 11.3 11.9 97 0.3 W 9 13 5 7 1016.5 1016.3 1.2
06/04:11am 12.6 11.2 12.1 97 0.3 W 11 15 6 8 1016.4 1016.2 1.2
06/04:00am 12.8 10.3 12.2 96 0.3 WSW 17 22 9 12 1016.4 1016.2 1.2
06/03:52am 13.1 10.7 12.5 96 0.3 WSW 17 28 9 15 1016.3 1016.1 1.2
06/03:30am 13.5 10.4 12.1 91 0.8 WNW 20 24 11 13 1015.8 1015.5 1.0
06/03:00am 13.5 10.7 12.6 94 0.5 WNW 19 28 10 15 1015.6 1015.4 1.0
06/02:56am 13.6 10.8 12.7 94 0.5 WNW 19 24 10 13 1015.6 1015.4 1.0
06/02:30am 13.6 10.8 12.5 93 0.6 WNW 19 28 10 15 1015.4 1015.2 1.0
06/02:00am 13.6 11.5 12.5 93 0.6 WNW 15 24 8 13 1015.4 1015.2 1.0
06/01:44am 13.7 11.7 12.6 93 0.6 WNW 15 22 8 12 1015.5 1015.3 1.0
06/01:30am 14.0 11.3 12.9 93 0.6 NW 19 24 10 13 1015.4 1015.2 1.0
06/01:00am 13.9 13.6 13.3 96 0.3 W 7 13 4 7 1015.4 1015.2 1.0
06/12:30am 14.2 12.7 13.2 94 0.6 WNW 13 20 7 11 1015.5 1015.3 0.8
06/12:00am 14.3 12.0 13.0 92 0.7 NW 17 22 9 12 1015.4 1015.2 0.8
 
Date/Time
EST
Temp
°C
App
Temp
°C
Dew
Point
°C
Rel
Hum
%
Delta-T
°C
Wind Press
QNH
hPa
Press
MSL
hPa
Rain since
9am
mm
Dir  Spd
km/h
Gust
km/h
Spd
kts
Gust
kts
05/11:30pm 13.9 11.6 13.1 95 0.4 NW 17 24 9 13 1015.5 1015.3 0.8
05/11:00pm 13.6 11.8 13.3 98 0.2 NW 15 24 8 13 1015.6 1015.4 0.8
05/10:58pm 13.6 11.8 13.3 98 0.2 NW 15 24 8 13 1015.8 1015.5 0.8
05/10:30pm 13.7 11.9 13.2 97 0.3 WNW 15 19 8 10 1015.8 1015.5 0.8
05/10:08pm 13.6 11.3 13.0 96 0.3 WNW 17 24 9 13 1015.8 1015.5 0.4
05/10:00pm 13.7 11.8 13.1 96 0.3 NW 15 20 8 11 1015.6 1015.4 0.4
05/09:30pm 13.8 10.8 12.7 93 0.6 NW 20 32 11 17 1015.8 1015.5 0.0
05/09:29pm 13.8 10.8 12.5 92 0.7 WNW 20 32 11 17 1015.8 1015.5 0.0
05/09:13pm 14.7 9.6 12.0 84 1.5 NW 30 43 16 23 1015.4 1015.2 0.0
05/09:00pm 16.0 12.7 11.0 72 2.7 NW 19 32 10 17 1015.1 1014.9 0.0
05/08:30pm 15.8 12.3 11.0 73 2.6 NNW 20 32 11 17 1014.8 1014.6 0.0
05/08:00pm 16.1 11.7 10.4 69 3.0 NW 24 35 13 19 1014.5 1014.3 0.0
05/07:30pm 16.3 11.8 9.9 66 3.4 NW 24 37 13 20 1014.4 1014.2 0.0
05/07:00pm 16.3 11.7 9.7 65 3.5 NW 24 33 13 18 1013.9 1013.7 0.0
05/06:30pm 16.3 12.5 9.7 65 3.5 NW 20 32 11 17 1013.5 1013.3 0.0
05/06:00pm 16.2 12.0 9.8 66 3.4 NNW 22 32 12 17 1013.2 1013.0 0.0
05/05:30pm 16.3 12.7 9.7 65 3.5 NW 19 26 10 14 1012.9 1012.7 0.0
05/05:00pm 16.1 12.9 10.0 67 3.2 NNW 17 28 9 15 1012.7 1012.5 0.0
05/04:30pm 16.1 12.4 9.5 65 3.5 NNW 19 28 10 15 1012.6 1012.4 0.0
05/04:00pm 16.0 12.1 9.4 65 3.4 NNW 20 28 11 15 1012.4 1012.2 0.0
05/03:30pm 15.8 11.2 9.5 66 3.3 NNW 24 33 13 18 1012.5 1012.3 0.0
05/03:00pm 15.9 10.8 9.1 64 3.5 NNW 26 41 14 22 1012.5 1012.3 0.0
05/02:30pm 16.6 12.3 9.5 63 3.7 NW 22 35 12 19 1012.5 1012.3 0.0
05/02:00pm 15.6 11.2 9.1 65 3.4 NW 22 32 12 17 1012.7 1012.5 0.0
05/01:30pm 15.4 10.9 8.6 64 3.5 NW 22 30 12 16 1012.9 1012.7 0.0
05/01:00pm 15.3 11.7 8.5 64 3.5 NW 17 32 9 17 1013.1 1012.9 0.0
05/12:30pm 14.9 10.6 7.9 63 3.5 NW 20 28 11 15 1013.5 1013.3 0.0
05/12:00pm 15.3 10.7 8.3 63 3.6 NW 22 32 12 17 1013.6 1013.4 0.0
05/11:30am 14.2 9.6 8.2 67 3.0 NW 22 32 12 17 1014.2 1014.0 0.0
05/11:00am 13.9 9.8 8.5 70 2.7 NW 20 24 11 13 1014.5 1014.3 0.0
05/10:30am 12.6 9.4 8.3 75 2.1 NNW 15 22 8 12 1015.0 1014.8 0.0
05/10:00am 12.1 7.8 7.8 75 2.1 NW 20 26 11 14 1015.4 1015.2 0.0
05/09:30am 12.0 8.6 7.7 75 2.1 NNW 15 20 8 11 1015.6 1015.4 0.0
05/09:00am 11.4 7.8 6.9 74 2.2 NNW 15 22 8 12 1015.9 1015.6 10.0
05/08:30am 11.1 7.6 7.4 78 1.8 NNW 15 19 8 10 1015.4 1015.2 -
05/08:00am 10.9 7.1 7.6 80 1.6 NW 17 22 9 12 1015.0 1014.8 -
05/07:30am 10.1 7.1 7.5 84 1.3 NW 13 19 7 10 1014.5 1014.3 -
05/07:00am 9.0 5.8 7.0 87 0.9 NNW 13 20 7 11 1014.2 1014.0 -
05/06:30am 8.1 5.5 6.1 87 0.9 NNW 9 13 5 7 1013.8 1013.6 -
05/06:00am 8.5 5.1 6.1 85 1.1 NNW 13 17 7 9 1013.4 1013.2 -
05/05:30am 8.6 5.6 6.1 84 1.2 NNW 11 15 6 8 1013.1 1012.9 -
05/05:00am 8.7 6.1 6.0 83 1.2 N 9 11 5 6 1012.6 1012.4 -
05/04:30am 8.4 5.7 5.7 83 1.2 NNW 9 11 5 6 1012.3 1012.1 -
05/04:00am 9.0 6.4 6.1 82 1.3 NNW 9 13 5 7 1011.9 1011.7 -
05/03:30am 9.2 7.0 6.3 82 1.4 NNW 7 9 4 5 1011.7 1011.5 -
05/03:00am 8.9 - 6.2 83 1.3 - - - - - 1012.0 1011.8 -
05/03:30am 8.5 5.9 6.0 84 1.1 NNW 9 11 5 6 1011.9 1011.7 10.4
05/03:00am 9.3 7.2 6.6 83 1.3 NW 7 11 4 6 1011.8 1011.6 10.4
05/02:30am 9.6 6.8 6.9 83 1.3 NW 11 15 6 8 1011.6 1011.4 10.4
05/02:00am 10.4 7.2 6.9 79 1.7 WNW 13 17 7 9 1011.5 1011.3 10.4
05/01:30am 10.8 7.8 7.5 80 1.6 WNW 13 19 7 10 1011.2 1011.0 10.4
05/01:00am 11.2 8.2 7.7 79 1.7 WNW 13 20 7 11 1011.0 1010.8 10.4
05/12:30am 11.4 7.9 7.3 76 2.0 WNW 15 20 8 11 1010.8 1010.5 10.4
05/12:00am 11.7 7.9 7.6 76 2.0 NW 17 24 9 13 1010.4 1010.1 10.4
 
Date/Time
EST
Temp
°C
App
Temp
°C
Dew
Point
°C
Rel
Hum
%
Delta-T
°C
Wind Press
QNH
hPa
Press
MSL
hPa
Rain since
9am
mm
Dir  Spd
km/h
Gust
km/h
Spd
kts
Gust
kts
04/11:30pm 12.0 7.9 7.7 75 2.1 NW 19 28 10 15 1010.4 1010.1 10.4
04/11:00pm 12.1 7.7 7.4 73 2.3 WNW 20 32 11 17 1010.1 1009.8 10.4
04/10:30pm 12.6 7.1 7.5 71 2.5 WNW 26 41 14 22 1009.6 1009.3 10.4
04/10:00pm 13.1 8.1 8.0 71 2.5 NW 24 41 13 22 1009.0 1008.8 10.4
04/09:30pm 12.8 8.6 8.1 73 2.3 NW 20 32 11 17 1008.6 1008.4 10.4
04/09:00pm 12.3 8.4 8.8 79 1.8 NW 19 26 10 14 1008.1 1007.9 10.4
04/08:30pm 12.2 7.4 8.9 80 1.7 WNW 24 32 13 17 1007.7 1007.5 10.4
04/08:00pm 12.2 7.6 9.8 85 1.2 WNW 24 35 13 19 1007.3 1007.1 10.4
04/07:30pm 11.7 8.5 9.9 89 0.9 NW 17 20 9 11 1006.8 1006.6 10.4
04/07:00pm 11.6 6.7 9.9 89 0.9 W 26 39 14 21 1006.3 1006.1 10.4
04/06:30pm 12.3 5.5 9.3 82 1.5 W 35 48 19 26 1005.9 1005.7 9.2
04/06:15pm 14.7 8.0 7.5 62 3.6 WNW 32 54 17 29 1005.1 1004.8 8.8
04/06:00pm 15.7 8.7 6.2 53 4.7 WNW 32 48 17 26 1003.9 1003.6 8.8
04/05:32pm 16.3 10.3 7.0 54 4.6 W 28 46 15 25 1004.0 1003.7 8.8
04/05:30pm 16.1 9.7 7.1 55 4.5 W 30 46 16 25 1003.9 1003.6 8.8
04/05:00pm 16.6 9.6 6.7 52 4.9 WNW 33 46 18 25 1003.4 1003.1 8.8
04/04:30pm 16.6 8.6 7.5 55 4.6 WNW 39 57 21 31 1002.8 1002.6 8.8
04/04:02pm 15.9 9.8 9.6 66 3.3 W 32 50 17 27 1002.5 1002.3 8.8
04/04:00pm 16.0 9.6 9.2 64 3.6 W 33 50 18 27 1002.4 1002.2 8.8
04/03:30pm 16.5 10.4 9.9 65 3.5 W 32 50 17 27 1001.9 1001.7 8.8
04/03:04pm 15.6 9.5 9.9 69 3.0 W 32 50 17 27 1001.6 1001.4 8.8
04/03:00pm 16.1 9.2 8.8 62 3.8 WNW 35 46 19 25 1001.3 1001.1 8.8
04/02:36pm 17.8 12.1 11.1 65 3.7 WNW 32 50 17 27 1001.1 1000.9 8.8
04/02:30pm 17.0 11.6 10.8 67 3.3 W 30 44 16 24 1001.0 1000.8 8.8
04/02:00pm 17.5 11.6 11.1 66 3.5 WNW 33 50 18 27 1000.8 1000.6 8.8
04/01:56pm 17.2 11.3 10.3 64 3.7 WNW 32 50 17 27 1000.7 1000.5 8.8
04/01:30pm 16.5 10.4 10.6 68 3.2 NW 33 44 18 24 1001.1 1000.9 8.8
04/01:19pm 16.4 10.8 10.0 66 3.4 WNW 30 48 16 26 1000.9 1000.7 8.8
04/01:00pm 16.9 12.6 10.7 67 3.4 WNW 24 37 13 20 1001.0 1000.8 8.8
04/12:30pm 16.1 12.6 12.3 78 2.1 WNW 22 37 12 20 1001.2 1001.0 8.8
04/12:00pm 13.8 9.9 12.2 90 0.9 WNW 24 33 13 18 1001.6 1001.4 8.8
04/11:41am 12.9 10.7 12.1 95 0.4 WNW 15 24 8 13 1001.6 1001.4 8.2
04/11:33am 12.7 10.5 12.1 96 0.3 WNW 15 22 8 12 1001.6 1001.4 8.2
04/11:30am 12.2 9.4 11.3 94 0.5 WNW 17 24 9 13 1001.6 1001.4 8.2
04/11:26am 12.2 9.0 11.4 95 0.4 WNW 19 26 10 14 1001.6 1001.4 8.0
04/11:18am 11.7 7.9 11.1 96 0.3 W 22 33 12 18 1001.4 1001.2 7.8
04/11:06am 11.8 7.6 11.2 96 0.3 W 24 32 13 17 1001.5 1001.3 5.0
04/11:04am 11.8 7.6 11.0 95 0.4 W 24 32 13 17 1001.4 1001.2 4.8
04/11:00am 11.8 7.5 10.9 94 0.5 W 24 32 13 17 1001.5 1001.3 4.2
04/10:38am 13.2 9.2 11.8 91 0.8 W 24 33 13 18 1001.0 1000.8 1.2
04/10:30am 14.2 9.7 12.6 90 0.9 WNW 28 41 15 22 1000.6 1000.4 0.6
04/10:00am 13.4 8.4 12.1 92 0.7 WNW 30 41 16 22 1000.1 999.8 0.4
04/09:39am 13.8 9.5 12.2 90 0.9 WNW 26 39 14 21 999.9 999.6 0.2
04/09:30am 13.7 9.1 12.3 91 0.8 WNW 28 41 15 22 1000.0 999.7 0.2
04/09:17am 13.5 9.6 12.2 92 0.7 WNW 24 37 13 20 999.7 999.4 0.2
04/09:00am 13.6 8.6 12.2 91 0.8 WNW 30 44 16 24 999.3 999.0 3.0
04/08:30am 13.8 8.5 12.5 92 0.7 WNW 32 41 17 22 998.7 998.4 2.8
04/08:16am 13.9 9.0 12.5 91 0.8 WNW 30 43 16 23 998.3 998.0 2.8
04/08:00am 14.4 11.3 13.3 93 0.6 WNW 22 32 12 17 997.9 997.6 2.8
04/07:30am 14.4 12.3 13.6 95 0.4 WNW 17 22 9 12 997.4 997.1 2.8
04/07:00am 14.3 12.7 13.8 97 0.3 WNW 15 20 8 11 997.3 997.0 2.8
04/06:30am 14.4 13.6 13.9 97 0.3 NW 11 19 6 10 996.5 996.3 2.8
04/06:00am 14.5 15.7 13.9 96 0.3 CALM 0 0 0 0 995.9 995.7 2.8
04/05:30am 14.8 12.3 14.0 95 0.5 W 20 30 11 16 996.3 996.1 2.2
04/05:12am 15.1 10.9 13.5 90 0.9 W 28 41 15 22 995.9 995.7 1.4
04/05:00am 15.7 12.1 14.1 90 0.9 WNW 26 39 14 21 995.7 995.5 1.4
04/04:57am 15.9 13.5 14.4 91 0.9 WNW 20 39 11 21 995.7 995.5 1.2
04/04:51am 16.1 15.3 15.0 93 0.6 NW 13 20 7 11 995.5 995.3 1.0
04/04:39am 16.5 16.7 14.7 89 1.0 NW 7 13 4 7 995.3 995.1 0.6
04/04:30am 16.7 17.0 14.5 87 1.3 N 6 9 3 5 995.2 995.0 0.0
04/04:00am 16.9 17.0 14.4 85 1.5 SE 7 11 4 6 995.1 994.8 0.0
04/03:30am 16.5 16.5 14.2 86 1.3 ESE 7 11 4 6 995.4 995.2 0.0
04/03:00am 16.3 15.9 14.1 87 1.3 SE 9 13 5 7 996.1 995.9 0.0
04/02:30am 16.2 16.2 14.2 88 1.1 S 7 11 4 6 997.0 996.7 0.0
04/02:00am 16.0 16.3 14.4 90 0.9 E 6 6 3 3 997.6 997.3 0.0
04/01:30am 15.9 16.9 14.3 90 0.9 SE 2 7 1 4 998.1 997.8 0.0
04/01:00am 16.1 17.1 14.3 89 1.0 E 2 9 1 5 998.6 998.3 0.0
04/12:30am 15.3 16.1 13.7 90 0.9 SSE 2 6 1 3 999.2 998.9 0.0

Other formats

Comma delimited format used in spreadsheet applications
http://www.bom.gov.au/fwo/IDV60801/IDV60801.95896.axf

JavaScript Object Notation format (JSON) in row-major order
http://www.bom.gov.au/fwo/IDV60801/IDV60801.95896.json

Data quality

Most of these data are generated automatically and are frequently updated. Quality checks on data are not normally performed. It is possible for incorrect values to appear. Refer to information at About Latest Weather Observations and please check the disclaimer before using these data.